createdAt,value
2022-10-01T19:33:04.853Z,934.33
2022-10-01T19:34:04.833Z,934.29
2022-10-01T19:35:04.828Z,934.30
2022-10-01T19:36:04.809Z,934.28
2022-10-01T19:37:04.805Z,934.28
2022-10-01T19:38:04.791Z,934.21
2022-10-01T19:39:04.779Z,934.22
2022-10-01T19:40:04.767Z,934.21
2022-10-01T19:41:04.756Z,934.22
2022-10-01T19:42:04.745Z,934.23
2022-10-01T19:43:04.833Z,934.23
2022-10-01T19:44:04.719Z,934.25
2022-10-01T19:45:04.735Z,934.28
2022-10-01T19:46:04.703Z,934.33
2022-10-01T19:47:04.744Z,934.34
2022-10-01T19:48:04.686Z,934.28
2022-10-01T19:49:04.668Z,934.28
2022-10-01T19:50:04.658Z,934.29
2022-10-01T19:51:04.654Z,934.24
2022-10-01T19:52:04.640Z,934.31
2022-10-01T19:53:04.634Z,934.27
2022-10-01T19:54:04.622Z,934.20
2022-10-01T19:55:04.711Z,934.11
2022-10-01T19:56:04.599Z,934.13
2022-10-01T19:57:04.596Z,934.16
2022-10-01T19:58:04.581Z,934.15
2022-10-01T19:59:04.572Z,934.15
2022-10-01T20:00:04.561Z,934.15
2022-10-01T20:01:04.619Z,934.16
2022-10-01T20:02:04.573Z,934.17
2022-10-01T20:03:04.539Z,934.19
2022-10-01T20:04:04.528Z,934.23
2022-10-01T20:05:04.518Z,934.23
2022-10-01T20:06:04.507Z,934.25
2022-10-01T20:07:04.502Z,934.19
2022-10-01T20:08:04.485Z,934.12
2022-10-01T20:09:04.485Z,934.16
2022-10-01T20:10:05.856Z,934.14
2022-10-01T20:11:04.464Z,934.16
2022-10-01T20:12:04.451Z,934.15
2022-10-01T20:13:04.446Z,934.26
2022-10-01T20:14:04.432Z,934.25
2022-10-01T20:15:04.422Z,934.27
2022-10-01T20:16:04.429Z,934.30
2022-10-01T20:17:04.408Z,934.30
2022-10-01T20:18:04.388Z,934.34
2022-10-01T20:19:04.381Z,934.32
2022-10-01T20:20:04.376Z,934.30
2022-10-01T20:21:04.466Z,934.30
2022-10-01T20:22:04.354Z,934.30
2022-10-01T20:23:04.341Z,934.33
2022-10-01T20:24:04.340Z,934.35
2022-10-01T20:25:04.330Z,934.41
2022-10-01T20:26:04.311Z,934.38
2022-10-01T20:27:04.306Z,934.40
2022-10-01T20:28:04.362Z,934.42
2022-10-01T20:29:04.283Z,934.45
2022-10-01T20:30:04.278Z,934.45
2022-10-01T20:31:04.385Z,934.52
2022-10-01T20:32:04.257Z,934.56
2022-10-01T20:33:04.244Z,934.54
2022-10-01T20:34:04.240Z,934.57
2022-10-01T20:35:04.225Z,934.54
2022-10-01T20:36:04.213Z,934.55
2022-10-01T20:37:04.205Z,934.61
2022-10-01T20:38:04.202Z,934.58
2022-10-01T20:39:04.189Z,934.58
2022-10-01T20:40:04.179Z,934.61
2022-10-01T20:41:04.265Z,934.56
2022-10-01T20:42:04.158Z,934.59
2022-10-01T20:43:04.148Z,934.60
2022-10-01T20:44:04.139Z,934.55
2022-10-01T20:45:04.134Z,934.56
2022-10-01T20:46:04.181Z,934.56
2022-10-01T20:47:04.108Z,934.57
2022-10-01T20:48:04.097Z,934.58
2022-10-01T20:49:04.092Z,934.62
2022-10-01T20:50:06.932Z,934.60
2022-10-01T20:51:04.164Z,934.64
2022-10-01T20:52:04.054Z,934.62
2022-10-01T20:53:04.071Z,934.64
2022-10-01T20:54:04.037Z,934.64
2022-10-01T20:55:04.027Z,934.62
2022-10-01T20:56:04.017Z,934.63
2022-10-01T20:57:04.010Z,934.61
2022-10-01T20:58:03.997Z,934.63
2022-10-01T20:59:03.985Z,934.68
2022-10-01T21:00:03.975Z,934.72
2022-10-01T21:01:04.156Z,934.72
2022-10-01T21:02:04.013Z,934.70
2022-10-01T21:03:03.951Z,934.69
2022-10-01T21:04:03.936Z,934.71
2022-10-01T21:05:03.928Z,934.71
2022-10-01T21:06:03.917Z,934.72
2022-10-01T21:07:03.907Z,934.72
2022-10-01T21:08:03.893Z,934.73
2022-10-01T21:09:03.885Z,934.72
2022-10-01T21:10:03.872Z,934.77
2022-10-01T21:11:03.864Z,934.80
2022-10-01T21:12:03.854Z,934.74
2022-10-01T21:13:03.841Z,934.81
2022-10-01T21:14:03.829Z,934.80
2022-10-01T21:15:03.819Z,934.78
2022-10-01T21:16:03.858Z,934.79
2022-10-01T21:17:03.803Z,934.83
2022-10-01T21:18:03.791Z,934.83
2022-10-01T21:19:03.785Z,934.89
2022-10-01T21:20:03.770Z,934.88
2022-10-01T21:21:03.764Z,934.87
2022-10-01T21:22:03.746Z,934.91
2022-10-01T21:23:03.738Z,934.93
2022-10-01T21:24:03.728Z,934.95
2022-10-01T21:25:03.719Z,934.93
2022-10-01T21:26:03.706Z,934.94
2022-10-01T21:27:03.693Z,934.95
2022-10-01T21:28:03.731Z,934.98
2022-10-01T21:29:03.673Z,935.02
2022-10-01T21:30:03.660Z,935.00
2022-10-01T21:31:03.658Z,935.04
2022-10-01T21:32:03.645Z,935.04
2022-10-01T21:33:03.633Z,935.03
2022-10-01T21:34:03.624Z,935.06
2022-10-01T21:35:03.612Z,935.04
2022-10-01T21:36:03.597Z,935.06
2022-10-01T21:37:03.592Z,935.12
2022-10-01T21:38:03.680Z,935.15
2022-10-01T21:39:03.566Z,935.19
2022-10-01T21:40:03.558Z,935.20
2022-10-01T21:41:03.544Z,935.25
2022-10-01T21:42:03.537Z,935.24
2022-10-01T21:43:03.525Z,935.29
2022-10-01T21:44:05.107Z,935.29
2022-10-01T21:45:03.506Z,935.35
2022-10-01T21:46:03.530Z,935.40
2022-10-01T21:47:03.484Z,935.39
2022-10-01T21:48:03.474Z,935.41
2022-10-01T21:49:03.566Z,935.45
2022-10-01T21:50:03.451Z,935.39
2022-10-01T21:51:03.438Z,935.39
2022-10-01T21:52:03.435Z,935.40
2022-10-01T21:53:03.418Z,935.44
2022-10-01T21:54:03.406Z,935.49
2022-10-01T21:55:03.397Z,935.50
2022-10-01T21:56:03.385Z,935.50
2022-10-01T21:57:03.394Z,935.51
2022-10-01T21:58:03.366Z,935.52
2022-10-01T21:59:03.359Z,935.52
2022-10-01T22:00:03.349Z,935.51
2022-10-01T22:01:03.380Z,935.52
2022-10-01T22:02:03.366Z,935.58
2022-10-01T22:03:03.308Z,935.52
2022-10-01T22:04:03.299Z,935.61
2022-10-01T22:05:03.287Z,935.54
2022-10-01T22:06:03.273Z,935.55
2022-10-01T22:07:03.269Z,935.58
2022-10-01T22:08:03.250Z,935.57
2022-10-01T22:09:03.345Z,935.58
2022-10-01T22:10:03.236Z,935.60
2022-10-01T22:11:03.224Z,935.58
2022-10-01T22:12:03.214Z,935.58
2022-10-01T22:13:03.201Z,935.61
2022-10-01T22:14:03.184Z,935.56
2022-10-01T22:15:03.177Z,935.63
2022-10-01T22:16:03.225Z,935.63
2022-10-01T22:17:03.159Z,935.58
2022-10-01T22:18:03.149Z,935.63
2022-10-01T22:19:03.150Z,935.60
2022-10-01T22:20:03.126Z,935.59
2022-10-01T22:21:03.118Z,935.61
2022-10-01T22:22:03.099Z,935.59
2022-10-01T22:23:03.096Z,935.63
2022-10-01T22:24:03.082Z,935.62
2022-10-01T22:25:03.068Z,935.65
2022-10-01T22:26:03.059Z,935.65
2022-10-01T22:27:03.045Z,935.64
2022-10-01T22:28:03.069Z,935.66
2022-10-01T22:29:03.025Z,935.63
2022-10-01T22:30:03.019Z,935.63
2022-10-01T22:31:03.008Z,935.65
2022-10-01T22:32:03.055Z,935.63
2022-10-01T22:33:02.986Z,935.66
2022-10-01T22:34:03.071Z,935.71
2022-10-01T22:35:02.962Z,935.70
2022-10-01T22:36:02.954Z,935.73
2022-10-01T22:37:02.937Z,935.73
2022-10-01T22:38:02.930Z,935.74
2022-10-01T22:39:02.916Z,935.70
2022-10-01T22:40:02.909Z,935.71
2022-10-01T22:41:02.897Z,935.72
2022-10-01T22:42:02.884Z,935.77
2022-10-01T22:43:02.874Z,935.75
2022-10-01T22:44:02.862Z,935.77
2022-10-01T22:45:02.853Z,935.80
2022-10-01T22:46:02.914Z,935.86
2022-10-01T22:47:02.827Z,935.83
2022-10-01T22:48:02.816Z,935.84
2022-10-01T22:49:02.908Z,935.84
2022-10-01T22:50:02.833Z,935.83
2022-10-01T22:51:02.814Z,935.82
2022-10-01T22:52:02.807Z,935.84
2022-10-01T22:53:02.767Z,935.87
2022-10-01T22:54:02.755Z,935.88
2022-10-01T22:55:02.740Z,935.87
2022-10-01T22:56:02.728Z,935.92
2022-10-01T22:57:02.731Z,935.92
2022-10-01T22:58:02.705Z,935.90
2022-10-01T22:59:02.695Z,935.94
2022-10-01T23:00:02.684Z,935.94
2022-10-01T23:01:02.725Z,935.93
2022-10-01T23:02:02.686Z,935.94
2022-10-01T23:03:02.663Z,936.00
2022-10-01T23:04:02.643Z,936.02
2022-10-01T23:05:02.631Z,936.04
2022-10-01T23:06:02.623Z,936.03
2022-10-01T23:07:02.610Z,936.06
2022-10-01T23:08:02.598Z,936.07
2022-10-01T23:09:02.589Z,936.07
2022-10-01T23:10:02.679Z,936.07
2022-10-01T23:11:02.574Z,936.06
2022-10-01T23:12:02.555Z,936.07
2022-10-01T23:13:02.544Z,936.09
2022-10-01T23:14:02.532Z,936.09
2022-10-01T23:15:02.517Z,936.13
2022-10-01T23:16:02.658Z,936.17
2022-10-01T23:17:02.500Z,936.20
2022-10-01T23:18:02.487Z,936.20
2022-10-01T23:19:02.473Z,936.21
2022-10-01T23:20:02.561Z,936.19
2022-10-01T23:21:02.453Z,936.20
2022-10-01T23:22:02.438Z,936.20
2022-10-01T23:23:02.429Z,936.23
2022-10-01T23:24:02.426Z,936.23
2022-10-01T23:25:02.411Z,936.22
2022-10-01T23:26:02.398Z,936.23
2022-10-01T23:27:02.389Z,936.26
2022-10-01T23:28:02.414Z,936.25
2022-10-01T23:29:02.371Z,936.26
2022-10-01T23:30:02.453Z,936.27
2022-10-01T23:31:02.345Z,936.31
2022-10-01T23:32:02.398Z,936.30
2022-10-01T23:33:02.318Z,936.31
2022-10-01T23:34:02.847Z,936.30
2022-10-01T23:35:02.295Z,936.32
2022-10-01T23:36:02.284Z,936.35
2022-10-01T23:37:02.274Z,936.34
2022-10-01T23:38:02.260Z,936.33
2022-10-01T23:39:02.254Z,936.39
2022-10-01T23:40:02.341Z,936.37
2022-10-01T23:41:02.227Z,936.38
2022-10-01T23:42:02.224Z,936.40
2022-10-01T23:43:02.211Z,936.41
2022-10-01T23:44:02.195Z,936.45
2022-10-01T23:45:02.185Z,936.42
2022-10-01T23:46:02.281Z,936.42
2022-10-01T23:47:02.161Z,936.44
2022-10-01T23:48:02.154Z,936.47
2022-10-01T23:49:02.139Z,936.41
2022-10-01T23:50:02.252Z,936.42
2022-10-01T23:51:02.118Z,936.48
2022-10-01T23:52:02.107Z,936.48
2022-10-01T23:53:02.102Z,936.51
2022-10-01T23:54:02.084Z,936.49
2022-10-01T23:55:02.068Z,936.53
2022-10-01T23:56:02.062Z,936.55
2022-10-01T23:57:02.051Z,936.58
2022-10-01T23:58:03.311Z,936.60
2022-10-01T23:59:02.029Z,936.59
